sensor_id;sensor_type;location;lat;lon;timestamp;pressure;altitude;pressure_sealevel;temperature;humidity
31771;BME280;18343;50.152;8.182;2023-01-15T00:00:26;95873.75;;;9.66;100.00
31771;BME280;18343;50.152;8.182;2023-01-15T00:03:10;95865.16;;;9.75;100.00
31771;BME280;18343;50.152;8.182;2023-01-15T00:05:55;95863.75;;;9.73;100.00
31771;BME280;18343;50.152;8.182;2023-01-15T00:08:40;95865.69;;;9.66;100.00
31771;BME280;18343;50.152;8.182;2023-01-15T00:11:25;95855.41;;;9.81;100.00
31771;BME280;18343;50.152;8.182;2023-01-15T00:14:09;95867.44;;;9.90;100.00
31771;BME280;18343;50.152;8.182;2023-01-15T00:16:55;95867.97;;;9.99;100.00
31771;BME280;18343;50.152;8.182;2023-01-15T00:19:40;95863.63;;;9.98;100.00
31771;BME280;18343;50.152;8.182;2023-01-15T00:22:24;95880.72;;;10.03;100.00
31771;BME280;18343;50.152;8.182;2023-01-15T00:25:09;95892.13;;;9.99;100.00
31771;BME280;18343;50.152;8.182;2023-01-15T00:27:54;95904.47;;;9.52;100.00
31771;BME280;18343;50.152;8.182;2023-01-15T00:30:40;95895.28;;;9.59;100.00
31771;BME280;18343;50.152;8.182;2023-01-15T00:33:26;95901.56;;;9.53;100.00
31771;BME280;18343;50.152;8.182;2023-01-15T00:36:11;95902.78;;;9.57;100.00
31771;BME280;18343;50.152;8.182;2023-01-15T00:38:55;95904.75;;;9.80;100.00
31771;BME280;18343;50.152;8.182;2023-01-15T00:41:40;95906.41;;;9.81;100.00
31771;BME280;18343;50.152;8.182;2023-01-15T00:44:25;95912.97;;;9.67;100.00
31771;BME280;18343;50.152;8.182;2023-01-15T00:47:12;95907.16;;;9.70;100.00
31771;BME280;18343;50.152;8.182;2023-01-15T00:49:58;95916.63;;;9.72;100.00
31771;BME280;18343;50.152;8.182;2023-01-15T00:52:43;95915.78;;;9.72;100.00
31771;BME280;18343;50.152;8.182;2023-01-15T00:55:27;95913.03;;;9.78;100.00
31771;BME280;18343;50.152;8.182;2023-01-15T00:58:12;95901.25;;;9.79;100.00
31771;BME280;18343;50.152;8.182;2023-01-15T01:00:59;95900.59;;;9.66;100.00
31771;BME280;18343;50.152;8.182;2023-01-15T01:03:44;95899.31;;;9.68;100.00
31771;BME280;18343;50.152;8.182;2023-01-15T01:06:30;95909.44;;;9.66;100.00
31771;BME280;18343;50.152;8.182;2023-01-15T01:09:15;95915.13;;;9.58;100.00
31771;BME280;18343;50.152;8.182;2023-01-15T01:12:00;95905.56;;;9.62;100.00
31771;BME280;18343;50.152;8.182;2023-01-15T01:14:44;95905.59;;;9.44;100.00
31771;BME280;18343;50.152;8.182;2023-01-15T01:17:29;95904.75;;;9.43;100.00
31771;BME280;18343;50.152;8.182;2023-01-15T01:20:16;95911.94;;;9.49;100.00
31771;BME280;18343;50.152;8.182;2023-01-15T01:23:02;95919.16;;;9.49;100.00
31771;BME280;18343;50.152;8.182;2023-01-15T01:25:47;95907.81;;;9.29;100.00
31771;BME280;18343;50.152;8.182;2023-01-15T01:28:31;95915.03;;;9.28;100.00
31771;BME280;18343;50.152;8.182;2023-01-15T01:31:17;95915.72;;;9.24;100.00
31771;BME280;18343;50.152;8.182;2023-01-15T01:34:01;95919.22;;;9.24;100.00
31771;BME280;18343;50.152;8.182;2023-01-15T01:36:46;95929.63;;;9.32;100.00
31771;BME280;18343;50.152;8.182;2023-01-15T01:39:32;95930.38;;;9.21;100.00
31771;BME280;18343;50.152;8.182;2023-01-15T01:42:17;95933.88;;;9.22;100.00
31771;BME280;18343;50.152;8.182;2023-01-15T01:45:21;95943.03;;;9.32;100.00
31771;BME280;18343;50.152;8.182;2023-01-15T01:48:06;95971.59;;;8.45;100.00
31771;BME280;18343;50.152;8.182;2023-01-15T01:50:51;95971.25;;;8.67;100.00
31771;BME280;18343;50.152;8.182;2023-01-15T01:53:38;95970.75;;;7.94;100.00
31771;BME280;18343;50.152;8.182;2023-01-15T01:56:25;95975.16;;;8.26;100.00
31771;BME280;18343;50.152;8.182;2023-01-15T01:59:10;95983.38;;;8.25;100.00
31771;BME280;18343;50.152;8.182;2023-01-15T02:01:59;95980.16;;;8.16;100.00
31771;BME280;18343;50.152;8.182;2023-01-15T02:04:44;95980.78;;;8.11;100.00
31771;BME280;18343;50.152;8.182;2023-01-15T02:07:29;95977.22;;;7.66;100.00
31771;BME280;18343;50.152;8.182;2023-01-15T02:10:15;95978.16;;;7.27;100.00
31771;BME280;18343;50.152;8.182;2023-01-15T02:13:06;95977.63;;;7.76;100.00
31771;BME280;18343;50.152;8.182;2023-01-15T02:15:59;95975.22;;;8.13;100.00
31771;BME280;18343;50.152;8.182;2023-01-15T02:18:52;95983.66;;;8.17;100.00
31771;BME280;18343;50.152;8.182;2023-01-15T02:21:49;95979.88;;;7.86;100.00
31771;BME280;18343;50.152;8.182;2023-01-15T02:24:45;95974.88;;;7.25;100.00
31771;BME280;18343;50.152;8.182;2023-01-15T02:27:36;95971.13;;;7.53;100.00
31771;BME280;18343;50.152;8.182;2023-01-15T02:30:27;95984.97;;;7.10;100.00
31771;BME280;18343;50.152;8.182;2023-01-15T02:33:20;95978.78;;;6.76;100.00
31771;BME280;18343;50.152;8.182;2023-01-15T02:36:11;95968.44;;;7.39;100.00
31771;BME280;18343;50.152;8.182;2023-01-15T02:39:03;95972.50;;;7.68;100.00
31771;BME280;18343;50.152;8.182;2023-01-15T02:41:50;95983.59;;;7.78;100.00
31771;BME280;18343;50.152;8.182;2023-01-15T02:44:42;95986.09;;;7.67;100.00
31771;BME280;18343;50.152;8.182;2023-01-15T02:47:32;95981.53;;;7.74;100.00
31771;BME280;18343;50.152;8.182;2023-01-15T02:50:23;95994.38;;;7.52;100.00
31771;BME280;18343;50.152;8.182;2023-01-15T02:53:13;95999.97;;;7.31;100.00
31771;BME280;18343;50.152;8.182;2023-01-15T02:56:06;95994.78;;;7.56;100.00
31771;BME280;18343;50.152;8.182;2023-01-15T02:58:56;96001.09;;;7.68;100.00
31771;BME280;18343;50.152;8.182;2023-01-15T03:01:49;96004.59;;;7.75;100.00
31771;BME280;18343;50.152;8.182;2023-01-15T03:04:46;96001.69;;;7.90;100.00
31771;BME280;18343;50.152;8.182;2023-01-15T03:07:39;96000.25;;;7.87;100.00
31771;BME280;18343;50.152;8.182;2023-01-15T03:10:29;95997.56;;;7.87;100.00
31771;BME280;18343;50.152;8.182;2023-01-15T03:13:26;96003.63;;;7.50;100.00
31771;BME280;18343;50.152;8.182;2023-01-15T03:16:20;96005.69;;;7.47;100.00
31771;BME280;18343;50.152;8.182;2023-01-15T03:19:16;95996.44;;;7.43;100.00
31771;BME280;18343;50.152;8.182;2023-01-15T03:22:08;96001.41;;;7.33;100.00
31771;BME280;18343;50.152;8.182;2023-01-15T03:24:59;95997.25;;;7.44;100.00
31771;BME280;18343;50.152;8.182;2023-01-15T03:27:45;95992.50;;;7.46;100.00
31771;BME280;18343;50.152;8.182;2023-01-15T03:30:31;96002.38;;;7.45;100.00
31771;BME280;18343;50.152;8.182;2023-01-15T03:33:17;96009.22;;;7.28;100.00
31771;BME280;18343;50.152;8.182;2023-01-15T03:36:04;96017.84;;;7.17;100.00
31771;BME280;18343;50.152;8.182;2023-01-15T03:38:49;96020.13;;;7.27;100.00
31771;BME280;18343;50.152;8.182;2023-01-15T03:41:46;96025.06;;;7.30;100.00
31771;BME280;18343;50.152;8.182;2023-01-15T03:44:41;96021.75;;;7.28;100.00
31771;BME280;18343;50.152;8.182;2023-01-15T03:47:39;96026.09;;;7.09;100.00
31771;BME280;18343;50.152;8.182;2023-01-15T03:50:33;96018.88;;;7.16;100.00
31771;BME280;18343;50.152;8.182;2023-01-15T03:53:25;96028.97;;;7.07;100.00
31771;BME280;18343;50.152;8.182;2023-01-15T03:56:15;96036.97;;;7.07;100.00
31771;BME280;18343;50.152;8.182;2023-01-15T03:59:07;96054.03;;;6.80;100.00
31771;BME280;18343;50.152;8.182;2023-01-15T04:01:56;96058.69;;;6.52;100.00
31771;BME280;18343;50.152;8.182;2023-01-15T04:04:43;96058.06;;;6.50;100.00
31771;BME280;18343;50.152;8.182;2023-01-15T04:07:27;96063.00;;;5.70;100.00
31771;BME280;18343;50.152;8.182;2023-01-15T04:10:16;96065.53;;;5.85;100.00
31771;BME280;18343;50.152;8.182;2023-01-15T04:13:00;96070.72;;;6.28;100.00
31771;BME280;18343;50.152;8.182;2023-01-15T04:15:45;96070.44;;;6.16;100.00
31771;BME280;18343;50.152;8.182;2023-01-15T04:18:30;96080.38;;;6.35;100.00
31771;BME280;18343;50.152;8.182;2023-01-15T04:21:14;96069.97;;;6.06;100.00
31771;BME280;18343;50.152;8.182;2023-01-15T04:23:59;96081.44;;;5.65;100.00
31771;BME280;18343;50.152;8.182;2023-01-15T04:26:45;96077.63;;;5.53;100.00
31771;BME280;18343;50.152;8.182;2023-01-15T04:29:30;96076.00;;;5.52;100.00
31771;BME280;18343;50.152;8.182;2023-01-15T04:32:15;96083.78;;;5.82;100.00
31771;BME280;18343;50.152;8.182;2023-01-15T04:34:59;96083.72;;;5.68;100.00
31771;BME280;18343;50.152;8.182;2023-01-15T04:37:44;96079.25;;;5.82;100.00
31771;BME280;18343;50.152;8.182;2023-01-15T04:40:28;96079.06;;;5.84;100.00
31771;BME280;18343;50.152;8.182;2023-01-15T04:43:14;96089.22;;;5.95;100.00
31771;BME280;18343;50.152;8.182;2023-01-15T04:45:59;96087.81;;;5.99;100.00
31771;BME280;18343;50.152;8.182;2023-01-15T04:48:44;96095.09;;;6.18;100.00
31771;BME280;18343;50.152;8.182;2023-01-15T04:51:28;96092.69;;;5.89;100.00
31771;BME280;18343;50.152;8.182;2023-01-15T04:54:15;96084.78;;;5.81;100.00
31771;BME280;18343;50.152;8.182;2023-01-15T04:57:00;96071.00;;;6.05;100.00
31771;BME280;18343;50.152;8.182;2023-01-15T04:59:46;96075.47;;;5.91;100.00
31771;BME280;18343;50.152;8.182;2023-01-15T05:02:32;96077.59;;;6.09;100.00
31771;BME280;18343;50.152;8.182;2023-01-15T05:05:20;96086.59;;;6.01;100.00
31771;BME280;18343;50.152;8.182;2023-01-15T05:08:05;96078.84;;;6.13;100.00
31771;BME280;18343;50.152;8.182;2023-01-15T05:10:49;96078.38;;;5.96;100.00
31771;BME280;18343;50.152;8.182;2023-01-15T05:13:34;96080.31;;;5.88;100.00
31771;BME280;18343;50.152;8.182;2023-01-15T05:16:24;96080.44;;;6.01;100.00
31771;BME280;18343;50.152;8.182;2023-01-15T05:19:09;96076.91;;;5.94;100.00
31771;BME280;18343;50.152;8.182;2023-01-15T05:21:54;96089.63;;;5.92;100.00
31771;BME280;18343;50.152;8.182;2023-01-15T05:24:39;96087.97;;;5.63;100.00
31771;BME280;18343;50.152;8.182;2023-01-15T05:27:24;96099.41;;;5.57;100.00
31771;BME280;18343;50.152;8.182;2023-01-15T05:30:10;96106.19;;;5.59;100.00
31771;BME280;18343;50.152;8.182;2023-01-15T05:32:56;96105.69;;;5.21;100.00
31771;BME280;18343;50.152;8.182;2023-01-15T05:35:41;96115.34;;;5.50;100.00
31771;BME280;18343;50.152;8.182;2023-01-15T05:38:25;96114.88;;;5.68;100.00
31771;BME280;18343;50.152;8.182;2023-01-15T05:41:12;96113.06;;;5.75;100.00
31771;BME280;18343;50.152;8.182;2023-01-15T05:44:01;96122.25;;;5.66;100.00
31771;BME280;18343;50.152;8.182;2023-01-15T05:46:48;96118.22;;;5.76;100.00
31771;BME280;18343;50.152;8.182;2023-01-15T05:49:34;96113.94;;;5.82;100.00
31771;BME280;18343;50.152;8.182;2023-01-15T05:52:19;96113.25;;;5.95;100.00
31771;BME280;18343;50.152;8.182;2023-01-15T05:55:05;96112.34;;;5.88;100.00
31771;BME280;18343;50.152;8.182;2023-01-15T05:57:49;96113.25;;;5.95;100.00
31771;BME280;18343;50.152;8.182;2023-01-15T06:00:34;96120.09;;;5.83;100.00
31771;BME280;18343;50.152;8.182;2023-01-15T06:03:18;96131.34;;;5.78;100.00
31771;BME280;18343;50.152;8.182;2023-01-15T06:06:09;96124.63;;;5.82;100.00
31771;BME280;18343;50.152;8.182;2023-01-15T06:08:56;96119.78;;;5.92;100.00
31771;BME280;18343;50.152;8.182;2023-01-15T06:11:41;96120.47;;;6.01;100.00
31771;BME280;18343;50.152;8.182;2023-01-15T06:14:26;96125.63;;;6.09;100.00
31771;BME280;18343;50.152;8.182;2023-01-15T06:17:10;96119.13;;;6.18;100.00
31771;BME280;18343;50.152;8.182;2023-01-15T06:19:55;96111.34;;;6.23;100.00
31771;BME280;18343;50.152;8.182;2023-01-15T06:22:41;96121.22;;;6.29;100.00
31771;BME280;18343;50.152;8.182;2023-01-15T06:25:31;96118.16;;;6.32;100.00
31771;BME280;18343;50.152;8.182;2023-01-15T06:28:16;96127.31;;;6.17;100.00
31771;BME280;18343;50.152;8.182;2023-01-15T06:31:04;96129.00;;;6.24;100.00
31771;BME280;18343;50.152;8.182;2023-01-15T06:33:49;96129.59;;;6.20;100.00
31771;BME280;18343;50.152;8.182;2023-01-15T06:36:34;96128.53;;;6.14;100.00
31771;BME280;18343;50.152;8.182;2023-01-15T06:39:20;96126.69;;;6.15;100.00
31771;BME280;18343;50.152;8.182;2023-01-15T06:42:05;96132.47;;;6.18;100.00
31771;BME280;18343;50.152;8.182;2023-01-15T06:44:49;96134.69;;;6.15;100.00
31771;BME280;18343;50.152;8.182;2023-01-15T06:47:34;96132.63;;;6.10;100.00
31771;BME280;18343;50.152;8.182;2023-01-15T06:50:19;96129.75;;;6.11;100.00
31771;BME280;18343;50.152;8.182;2023-01-15T06:53:04;96140.63;;;6.10;100.00
31771;BME280;18343;50.152;8.182;2023-01-15T06:55:50;96133.25;;;6.12;100.00
31771;BME280;18343;50.152;8.182;2023-01-15T06:58:34;96139.38;;;6.06;100.00
31771;BME280;18343;50.152;8.182;2023-01-15T07:01:19;96132.75;;;6.02;100.00
31771;BME280;18343;50.152;8.182;2023-01-15T07:04:04;96148.38;;;5.98;100.00
31771;BME280;18343;50.152;8.182;2023-01-15T07:06:49;96148.19;;;6.00;100.00
31771;BME280;18343;50.152;8.182;2023-01-15T07:09:33;96149.19;;;5.99;100.00
31771;BME280;18343;50.152;8.182;2023-01-15T07:12:20;96145.91;;;6.03;100.00
31771;BME280;18343;50.152;8.182;2023-01-15T07:15:07;96152.50;;;6.07;100.00
31771;BME280;18343;50.152;8.182;2023-01-15T07:17:53;96150.84;;;6.00;100.00
31771;BME280;18343;50.152;8.182;2023-01-15T07:20:38;96161.47;;;5.93;100.00
31771;BME280;18343;50.152;8.182;2023-01-15T07:23:24;96161.09;;;5.96;100.00
31771;BME280;18343;50.152;8.182;2023-01-15T07:26:09;96162.34;;;6.00;100.00
31771;BME280;18343;50.152;8.182;2023-01-15T07:28:55;96163.78;;;6.03;100.00
31771;BME280;18343;50.152;8.182;2023-01-15T07:31:40;96167.06;;;5.98;100.00
31771;BME280;18343;50.152;8.182;2023-01-15T07:34:25;96163.56;;;5.98;100.00
31771;BME280;18343;50.152;8.182;2023-01-15T07:37:10;96171.81;;;5.82;100.00
31771;BME280;18343;50.152;8.182;2023-01-15T07:39:55;96175.19;;;5.90;100.00
31771;BME280;18343;50.152;8.182;2023-01-15T07:42:39;96168.66;;;5.93;100.00
31771;BME280;18343;50.152;8.182;2023-01-15T07:45:26;96171.94;;;5.95;100.00
31771;BME280;18343;50.152;8.182;2023-01-15T07:48:10;96186.31;;;5.94;100.00
31771;BME280;18343;50.152;8.182;2023-01-15T07:50:55;96183.88;;;5.99;100.00
31771;BME280;18343;50.152;8.182;2023-01-15T07:53:39;96192.75;;;5.85;100.00
31771;BME280;18343;50.152;8.182;2023-01-15T07:56:25;96196.44;;;5.84;100.00
31771;BME280;18343;50.152;8.182;2023-01-15T07:59:10;96200.13;;;5.83;100.00
31771;BME280;18343;50.152;8.182;2023-01-15T08:01:55;96212.06;;;5.87;100.00
31771;BME280;18343;50.152;8.182;2023-01-15T08:04:40;96207.50;;;5.81;100.00
31771;BME280;18343;50.152;8.182;2023-01-15T08:07:25;96214.19;;;5.49;100.00
31771;BME280;18343;50.152;8.182;2023-01-15T08:10:13;96207.41;;;5.67;100.00
31771;BME280;18343;50.152;8.182;2023-01-15T08:12:57;96212.81;;;5.74;100.00
31771;BME280;18343;50.152;8.182;2023-01-15T08:15:42;96209.69;;;5.70;100.00
31771;BME280;18343;50.152;8.182;2023-01-15T08:18:28;96219.09;;;5.66;100.00
31771;BME280;18343;50.152;8.182;2023-01-15T08:21:13;96218.16;;;5.81;100.00
31771;BME280;18343;50.152;8.182;2023-01-15T08:24:01;96211.44;;;5.85;100.00
31771;BME280;18343;50.152;8.182;2023-01-15T08:26:46;96232.97;;;5.83;100.00
31771;BME280;18343;50.152;8.182;2023-01-15T08:29:32;96229.81;;;5.73;100.00
31771;BME280;18343;50.152;8.182;2023-01-15T08:32:19;96233.31;;;5.73;100.00
31771;BME280;18343;50.152;8.182;2023-01-15T08:35:07;96236.22;;;5.78;100.00
31771;BME280;18343;50.152;8.182;2023-01-15T08:37:52;96240.69;;;5.71;100.00
31771;BME280;18343;50.152;8.182;2023-01-15T08:40:37;96253.13;;;5.64;100.00
31771;BME280;18343;50.152;8.182;2023-01-15T08:43:21;96261.69;;;5.38;100.00
31771;BME280;18343;50.152;8.182;2023-01-15T08:46:07;96259.53;;;5.49;100.00
31771;BME280;18343;50.152;8.182;2023-01-15T08:48:51;96248.28;;;5.53;100.00
31771;BME280;18343;50.152;8.182;2023-01-15T08:51:37;96263.59;;;5.44;100.00
31771;BME280;18343;50.152;8.182;2023-01-15T08:54:23;96262.50;;;5.60;100.00
31771;BME280;18343;50.152;8.182;2023-01-15T08:57:08;96267.97;;;5.52;100.00
31771;BME280;18343;50.152;8.182;2023-01-15T08:59:53;96277.81;;;5.52;100.00
31771;BME280;18343;50.152;8.182;2023-01-15T09:02:38;96278.59;;;5.46;100.00
31771;BME280;18343;50.152;8.182;2023-01-15T09:05:22;96283.31;;;5.50;100.00
31771;BME280;18343;50.152;8.182;2023-01-15T09:08:08;96288.81;;;5.42;100.00
31771;BME280;18343;50.152;8.182;2023-01-15T09:10:56;96286.78;;;5.44;100.00
31771;BME280;18343;50.152;8.182;2023-01-15T09:13:41;96282.91;;;5.47;100.00
31771;BME280;18343;50.152;8.182;2023-01-15T09:16:29;96279.41;;;5.46;100.00
31771;BME280;18343;50.152;8.182;2023-01-15T09:19:13;96288.03;;;5.12;100.00
31771;BME280;18343;50.152;8.182;2023-01-15T09:21:58;96290.78;;;5.19;100.00
31771;BME280;18343;50.152;8.182;2023-01-15T09:24:44;96291.03;;;5.24;100.00
31771;BME280;18343;50.152;8.182;2023-01-15T09:27:29;96290.09;;;5.31;100.00
31771;BME280;18343;50.152;8.182;2023-01-15T09:30:17;96290.19;;;5.38;100.00
31771;BME280;18343;50.152;8.182;2023-01-15T09:33:02;96287.78;;;5.43;100.00
31771;BME280;18343;50.152;8.182;2023-01-15T09:35:47;96292.59;;;5.54;100.00
31771;BME280;18343;50.152;8.182;2023-01-15T09:38:31;96279.91;;;5.56;100.00
31771;BME280;18343;50.152;8.182;2023-01-15T09:41:17;96283.66;;;5.62;100.00
31771;BME280;18343;50.152;8.182;2023-01-15T09:44:18;96290.13;;;5.53;100.00
31771;BME280;18343;50.152;8.182;2023-01-15T09:47:11;96296.72;;;5.57;100.00
31771;BME280;18343;50.152;8.182;2023-01-15T09:50:29;96288.81;;;5.42;100.00
31771;BME280;18343;50.152;8.182;2023-01-15T09:53:37;96308.31;;;5.28;100.00
31771;BME280;18343;50.152;8.182;2023-01-15T09:56:28;96309.75;;;5.45;100.00
31771;BME280;18343;50.152;8.182;2023-01-15T09:59:21;96313.03;;;5.47;100.00
31771;BME280;18343;50.152;8.182;2023-01-15T10:02:22;96309.75;;;5.45;100.00
31771;BME280;18343;50.152;8.182;2023-01-15T10:05:16;96299.81;;;5.03;100.00
31771;BME280;18343;50.152;8.182;2023-01-15T10:08:10;96312.59;;;4.93;100.00
31771;BME280;18343;50.152;8.182;2023-01-15T10:11:01;96305.81;;;5.26;100.00
31771;BME280;18343;50.152;8.182;2023-01-15T10:13:52;96301.78;;;5.30;100.00
31771;BME280;18343;50.152;8.182;2023-01-15T10:16:40;96307.19;;;4.86;100.00
31771;BME280;18343;50.152;8.182;2023-01-15T10:19:26;96311.94;;;5.05;100.00
31771;BME280;18343;50.152;8.182;2023-01-15T10:22:23;96311.47;;;5.17;100.00
31771;BME280;18343;50.152;8.182;2023-01-15T10:25:18;96303.84;;;5.14;100.00
31771;BME280;18343;50.152;8.182;2023-01-15T10:28:21;96308.53;;;5.48;100.00
31771;BME280;18343;50.152;8.182;2023-01-15T10:31:17;96301.69;;;5.38;100.00
31771;BME280;18343;50.152;8.182;2023-01-15T10:34:33;96305.09;;;5.32;100.00
31771;BME280;18343;50.152;8.182;2023-01-15T10:37:27;96303.75;;;5.07;100.00
31771;BME280;18343;50.152;8.182;2023-01-15T10:40:40;96308.31;;;5.28;100.00
31771;BME280;18343;50.152;8.182;2023-01-15T10:43:41;96316.50;;;5.26;100.00
31771;BME280;18343;50.152;8.182;2023-01-15T10:46:34;96339.97;;;5.52;100.00
31771;BME280;18343;50.152;8.182;2023-01-15T10:49:20;96336.66;;;5.50;100.00
31771;BME280;18343;50.152;8.182;2023-01-15T10:52:14;96323.84;;;5.60;100.00
31771;BME280;18343;50.152;8.182;2023-01-15T10:55:13;96321.38;;;5.59;100.00
31771;BME280;18343;50.152;8.182;2023-01-15T10:58:11;96328.59;;;5.43;100.00
31771;BME280;18343;50.152;8.182;2023-01-15T11:01:04;96335.44;;;5.67;100.00
31771;BME280;18343;50.152;8.182;2023-01-15T11:03:51;96337.44;;;5.65;100.00
31771;BME280;18343;50.152;8.182;2023-01-15T11:06:36;96337.75;;;5.56;100.00
31771;BME280;18343;50.152;8.182;2023-01-15T11:09:23;96339.50;;;5.13;100.00
31771;BME280;18343;50.152;8.182;2023-01-15T11:12:20;96344.31;;;5.38;100.00
31771;BME280;18343;50.152;8.182;2023-01-15T11:15:23;96337.06;;;5.68;100.00
31771;BME280;18343;50.152;8.182;2023-01-15T11:18:14;96351.81;;;5.86;100.00
31771;BME280;18343;50.152;8.182;2023-01-15T11:21:11;96367.00;;;5.49;100.00
31771;BME280;18343;50.152;8.182;2023-01-15T11:23:57;96362.09;;;5.17;100.00
31771;BME280;18343;50.152;8.182;2023-01-15T11:26:47;96368.53;;;4.93;100.00
31771;BME280;18343;50.152;8.182;2023-01-15T11:29:35;96369.19;;;5.09;100.00
31771;BME280;18343;50.152;8.182;2023-01-15T11:32:27;96366.56;;;5.31;100.00
31771;BME280;18343;50.152;8.182;2023-01-15T11:35:16;96371.09;;;5.01;100.00
31771;BME280;18343;50.152;8.182;2023-01-15T11:38:05;96370.28;;;5.00;100.00
31771;BME280;18343;50.152;8.182;2023-01-15T11:40:54;96371.75;;;5.18;100.00
31771;BME280;18343;50.152;8.182;2023-01-15T11:43:41;96355.25;;;5.43;100.00
31771;BME280;18343;50.152;8.182;2023-01-15T11:46:28;96354.47;;;5.14;100.00
31771;BME280;18343;50.152;8.182;2023-01-15T11:49:17;96346.81;;;5.40;100.00
31771;BME280;18343;50.152;8.182;2023-01-15T11:52:04;96339.47;;;5.63;100.00
31771;BME280;18343;50.152;8.182;2023-01-15T11:54:53;96346.84;;;5.61;100.00
31771;BME280;18343;50.152;8.182;2023-01-15T11:57:38;96336.22;;;5.47;100.00
31771;BME280;18343;50.152;8.182;2023-01-15T12:00:26;96335.41;;;5.46;100.00
31771;BME280;18343;50.152;8.182;2023-01-15T12:03:16;96325.44;;;5.55;100.00
31771;BME280;18343;50.152;8.182;2023-01-15T12:06:04;96325.78;;;5.66;100.00
31771;BME280;18343;50.152;8.182;2023-01-15T12:08:51;96330.13;;;6.10;100.00
31771;BME280;18343;50.152;8.182;2023-01-15T12:11:57;96319.53;;;5.95;100.00
31771;BME280;18343;50.152;8.182;2023-01-15T12:18:39;96314.47;;;5.64;100.00
31771;BME280;18343;50.152;8.182;2023-01-15T12:22:00;96308.66;;;5.97;100.00
31771;BME280;18343;50.152;8.182;2023-01-15T12:25:16;96319.44;;;5.89;100.00
31771;BME280;18343;50.152;8.182;2023-01-15T12:28:10;96317.34;;;6.05;100.00
31771;BME280;18343;50.152;8.182;2023-01-15T12:31:00;96327.31;;;6.18;100.00
31771;BME280;18343;50.152;8.182;2023-01-15T12:33:52;96307.56;;;5.91;100.00
31771;BME280;18343;50.152;8.182;2023-01-15T12:36:45;96318.38;;;6.32;100.00
31771;BME280;18343;50.152;8.182;2023-01-15T12:39:38;96302.97;;;6.28;100.00
31771;BME280;18343;50.152;8.182;2023-01-15T12:42:29;96307.09;;;5.88;100.00
31771;BME280;18343;50.152;8.182;2023-01-15T12:45:21;96301.88;;;5.94;100.00
31771;BME280;18343;50.152;8.182;2023-01-15T12:48:13;96312.94;;;5.76;100.00
31771;BME280;18343;50.152;8.182;2023-01-15T12:51:02;96316.16;;;5.51;100.00
31771;BME280;18343;50.152;8.182;2023-01-15T12:53:52;96313.38;;;5.80;100.00
31771;BME280;18343;50.152;8.182;2023-01-15T12:56:48;96305.19;;;6.03;100.00
31771;BME280;18343;50.152;8.182;2023-01-15T12:59:41;96313.25;;;5.88;100.00
31771;BME280;18343;50.152;8.182;2023-01-15T13:02:36;96310.16;;;6.06;100.00
31771;BME280;18343;50.152;8.182;2023-01-15T13:05:29;96308.44;;;6.20;100.00
31771;BME280;18343;50.152;8.182;2023-01-15T13:08:23;96313.88;;;6.33;100.00
31771;BME280;18343;50.152;8.182;2023-01-15T13:11:14;96297.78;;;5.98;100.00
31771;BME280;18343;50.152;8.182;2023-01-15T13:13:58;96303.94;;;6.20;100.00
31771;BME280;18343;50.152;8.182;2023-01-15T13:16:48;96300.00;;;6.16;100.00
31771;BME280;18343;50.152;8.182;2023-01-15T13:19:47;96307.69;;;6.26;100.00
31771;BME280;18343;50.152;8.182;2023-01-15T13:22:46;96309.09;;;6.50;100.00
31771;BME280;18343;50.152;8.182;2023-01-15T13:26:00;96314.03;;;6.53;100.00
31771;BME280;18343;50.152;8.182;2023-01-15T13:29:02;96321.22;;;6.24;100.00
31771;BME280;18343;50.152;8.182;2023-01-15T13:31:59;96318.50;;;6.45;100.00
31771;BME280;18343;50.152;8.182;2023-01-15T13:34:54;96316.09;;;6.29;100.00
31771;BME280;18343;50.152;8.182;2023-01-15T13:37:47;96315.63;;;6.47;100.00
31771;BME280;18343;50.152;8.182;2023-01-15T13:40:38;96309.97;;;6.63;100.00
31771;BME280;18343;50.152;8.182;2023-01-15T13:43:32;96314.88;;;6.60;100.00
31771;BME280;18343;50.152;8.182;2023-01-15T13:46:19;96313.53;;;6.42;100.00
31771;BME280;18343;50.152;8.182;2023-01-15T13:49:04;96313.16;;;6.45;100.00
31771;BME280;18343;50.152;8.182;2023-01-15T13:51:51;96309.16;;;6.35;100.00
31771;BME280;18343;50.152;8.182;2023-01-15T13:54:39;96318.56;;;6.31;100.00
31771;BME280;18343;50.152;8.182;2023-01-15T13:57:32;96315.31;;;6.35;100.00
31771;BME280;18343;50.152;8.182;2023-01-15T14:00:30;96310.47;;;6.45;100.00
31771;BME280;18343;50.152;8.182;2023-01-15T14:03:34;96320.03;;;6.96;100.00
31771;BME280;18343;50.152;8.182;2023-01-15T14:06:19;96331.31;;;6.91;100.00
31771;BME280;18343;50.152;8.182;2023-01-15T14:09:07;96335.59;;;6.86;100.00
31771;BME280;18343;50.152;8.182;2023-01-15T14:12:09;96344.13;;;6.68;100.00
31771;BME280;18343;50.152;8.182;2023-01-15T14:15:24;96349.59;;;6.53;100.00
31771;BME280;18343;50.152;8.182;2023-01-15T14:18:35;96358.16;;;6.76;100.00
31771;BME280;18343;50.152;8.182;2023-01-15T14:21:35;96357.34;;;6.48;100.00
31771;BME280;18343;50.152;8.182;2023-01-15T14:24:55;96359.25;;;6.54;100.00
31771;BME280;18343;50.152;8.182;2023-01-15T14:27:58;96366.63;;;6.80;100.00
31771;BME280;18343;50.152;8.182;2023-01-15T14:31:25;96359.88;;;6.91;100.00
31771;BME280;18343;50.152;8.182;2023-01-15T14:34:21;96350.25;;;6.62;100.00
31771;BME280;18343;50.152;8.182;2023-01-15T14:37:23;96371.03;;;6.94;100.00
31771;BME280;18343;50.152;8.182;2023-01-15T14:40:20;96364.66;;;6.95;100.00
31771;BME280;18343;50.152;8.182;2023-01-15T14:43:14;96372.72;;;7.02;100.00
31771;BME280;18343;50.152;8.182;2023-01-15T14:46:14;96381.13;;;6.99;100.00
31771;BME280;18343;50.152;8.182;2023-01-15T14:49:02;96366.31;;;6.68;100.00
31771;BME280;18343;50.152;8.182;2023-01-15T14:51:50;96373.75;;;6.73;100.00
31771;BME280;18343;50.152;8.182;2023-01-15T14:54:38;96377.06;;;6.75;100.00
31771;BME280;18343;50.152;8.182;2023-01-15T14:57:26;96375.09;;;6.84;100.00
31771;BME280;18343;50.152;8.182;2023-01-15T15:00:17;96397.41;;;6.76;100.00